createdAt,value
2018-11-20T00:02:51.799Z,3.00
2018-11-20T00:08:22.240Z,2.90
2018-11-20T00:11:05.586Z,2.80
2018-11-20T00:13:56.928Z,2.70
2018-11-20T00:16:35.097Z,2.70
2018-11-20T00:21:55.647Z,2.60
2018-11-20T00:24:23.267Z,2.60
2018-11-20T00:29:34.977Z,2.50
2018-11-20T00:34:36.067Z,2.40
2018-11-20T00:42:31.133Z,2.40
2018-11-20T00:44:59.686Z,2.40
2018-11-20T00:50:19.922Z,2.40
2018-11-20T00:56:07.368Z,2.40
2018-11-20T00:58:54.190Z,2.40
2018-11-20T01:03:50.502Z,2.40
2018-11-20T01:08:46.393Z,2.50
2018-11-20T01:14:13.510Z,2.60
2018-11-20T01:16:58.250Z,2.60
2018-11-20T01:19:28.899Z,2.60
2018-11-20T01:22:29.107Z,2.70
2018-11-20T01:25:15.312Z,2.70
2018-11-20T01:28:07.347Z,2.70
2018-11-20T01:30:53.990Z,2.70
2018-11-20T01:36:33.275Z,2.70
2018-11-20T01:39:24.724Z,2.70
2018-11-20T01:44:40.501Z,2.70
2018-11-20T01:49:39.232Z,2.70
2018-11-20T01:52:36.256Z,2.70
2018-11-20T01:55:22.661Z,2.70
2018-11-20T01:58:04.077Z,2.70
2018-11-20T02:00:59.594Z,2.60
2018-11-20T02:06:19.496Z,2.60
2018-11-20T02:08:49.236Z,2.60
2018-11-20T02:11:37.725Z,2.50
2018-11-20T02:14:34.616Z,2.50
2018-11-20T02:17:24.010Z,2.50
2018-11-20T02:20:19.334Z,2.50
2018-11-20T02:23:01.146Z,2.50
2018-11-20T02:28:01.291Z,2.60
2018-11-20T02:30:55.512Z,2.60
2018-11-20T02:36:44.207Z,2.70
2018-11-20T02:39:50.769Z,2.80
2018-11-20T02:45:10.831Z,2.80
2018-11-20T02:50:06.660Z,2.80
2018-11-20T02:52:57.846Z,2.80
2018-11-20T03:03:19.813Z,2.80
2018-11-20T03:10:52.026Z,2.90
2018-11-20T03:13:38.922Z,2.90
2018-11-20T03:16:39.213Z,2.90
2018-11-20T03:22:03.313Z,2.90
2018-11-20T03:24:30.731Z,2.90
2018-11-20T03:27:25.238Z,2.90
2018-11-20T03:30:58.528Z,2.90
2018-11-20T03:33:45.319Z,2.90
2018-11-20T03:36:42.307Z,3.10
2018-11-20T03:39:24.586Z,3.00
2018-11-20T03:44:23.145Z,3.00
2018-11-20T03:49:43.418Z,3.00
2018-11-20T03:54:39.731Z,3.00
2018-11-20T03:59:36.362Z,3.10
2018-11-20T04:05:04.094Z,3.10
2018-11-20T04:15:11.358Z,3.20
2018-11-20T04:17:59.345Z,3.20
2018-11-20T04:20:46.069Z,3.20
2018-11-20T04:23:23.800Z,3.20
2018-11-20T04:28:43.840Z,3.20
2018-11-20T04:34:12.105Z,3.20
2018-11-20T04:36:57.002Z,3.20
2018-11-20T04:40:41.775Z,3.20
2018-11-20T04:43:41.402Z,3.20
2018-11-20T04:46:27.599Z,3.10
2018-11-20T04:49:09.163Z,3.10
2018-11-20T04:51:59.629Z,3.20
2018-11-20T04:54:48.584Z,3.20
2018-11-20T04:57:51.134Z,3.20
2018-11-20T05:00:36.090Z,3.20
2018-11-20T05:03:28.224Z,3.20
2018-11-20T05:06:14.290Z,3.20
2018-11-20T05:09:13.947Z,3.20
2018-11-20T05:11:57.762Z,3.20
2018-11-20T05:14:46.334Z,3.20
2018-11-20T05:17:33.764Z,3.20
2018-11-20T05:20:19.170Z,3.20
2018-11-20T05:22:56.854Z,3.20
2018-11-20T05:25:47.116Z,3.20
2018-11-20T05:28:43.457Z,3.20
2018-11-20T05:31:41.984Z,3.20
2018-11-20T05:34:22.132Z,3.20
2018-11-20T05:37:21.594Z,3.20
2018-11-20T05:39:56.686Z,3.20
2018-11-20T05:42:42.927Z,3.20
2018-11-20T05:45:38.586Z,3.20
2018-11-20T05:48:44.195Z,3.30
2018-11-20T05:51:31.700Z,3.20
2018-11-20T05:54:19.448Z,3.20
2018-11-20T05:57:13.046Z,3.20
2018-11-20T05:59:59.740Z,3.20
2018-11-20T06:02:48.036Z,3.20
2018-11-20T06:05:43.862Z,3.30
2018-11-20T06:08:30.261Z,3.20
2018-11-20T06:11:17.745Z,3.20
2018-11-20T06:14:05.418Z,3.20
2018-11-20T06:17:08.211Z,3.20
2018-11-20T06:19:52.045Z,3.20
2018-11-20T06:22:31.948Z,3.20
2018-11-20T06:25:25.349Z,3.30
2018-11-20T06:28:21.638Z,3.30
2018-11-20T06:31:07.748Z,3.30
2018-11-20T06:34:24.963Z,3.20
2018-11-20T06:37:17.440Z,3.20
2018-11-20T06:40:04.072Z,3.20
2018-11-20T06:43:04.059Z,3.20
2018-11-20T06:46:01.151Z,3.20
2018-11-20T06:48:57.788Z,3.30
2018-11-20T06:51:48.685Z,3.20
2018-11-20T06:54:41.555Z,3.30
2018-11-20T06:57:32.058Z,3.30
2018-11-20T07:00:21.634Z,3.30
2018-11-20T07:03:05.905Z,3.30
2018-11-20T07:05:48.399Z,3.30
2018-11-20T07:08:39.286Z,3.30
2018-11-20T07:11:29.506Z,3.30
2018-11-20T07:14:14.187Z,3.30
2018-11-20T07:17:22.265Z,3.20
2018-11-20T07:20:09.865Z,3.30
2018-11-20T07:23:12.703Z,3.20
2018-11-20T07:25:50.857Z,3.30
2018-11-20T07:28:38.525Z,3.30
2018-11-20T07:31:25.718Z,3.30
2018-11-20T07:34:11.767Z,3.30
2018-11-20T07:36:57.653Z,3.30
2018-11-20T07:40:00.439Z,3.30
2018-11-20T07:42:46.827Z,3.30
2018-11-20T07:45:33.072Z,3.30
2018-11-20T07:48:29.975Z,3.30
2018-11-20T07:51:18.127Z,3.40
2018-11-20T07:54:14.152Z,3.40
2018-11-20T07:56:58.582Z,3.40
2018-11-20T07:59:56.197Z,3.40
2018-11-20T08:02:55.769Z,3.40
2018-11-20T08:05:42.839Z,3.40
2018-11-20T08:08:36.233Z,3.40
2018-11-20T08:11:23.675Z,3.50
2018-11-20T08:14:04.133Z,3.40
2018-11-20T08:16:39.985Z,3.40
2018-11-20T08:19:35.209Z,3.40
2018-11-20T08:22:21.236Z,3.50
2018-11-20T08:25:07.425Z,3.50
2018-11-20T08:27:57.698Z,3.60
2018-11-20T08:30:50.964Z,3.60
2018-11-20T08:33:37.992Z,3.50
2018-11-20T08:36:17.692Z,3.50
2018-11-20T08:39:01.356Z,3.50
2018-11-20T08:41:50.984Z,3.50
2018-11-20T08:44:37.129Z,3.60
2018-11-20T08:47:24.783Z,3.60
2018-11-20T08:50:18.320Z,3.50
2018-11-20T08:53:00.944Z,3.50
2018-11-20T08:55:51.807Z,3.60
2018-11-20T08:58:40.078Z,3.60
2018-11-20T09:01:46.816Z,3.60
2018-11-20T09:04:40.602Z,3.60
2018-11-20T09:07:30.998Z,3.60
2018-11-20T09:10:11.920Z,3.60
2018-11-20T09:13:02.214Z,3.60
2018-11-20T09:15:49.742Z,3.70
2018-11-20T09:18:41.380Z,3.80
2018-11-20T09:21:48.517Z,3.90
2018-11-20T09:24:36.605Z,3.90
2018-11-20T09:27:39.492Z,3.90
2018-11-20T09:30:29.854Z,4.00
2018-11-20T09:33:27.521Z,4.00
2018-11-20T09:36:13.964Z,4.10
2018-11-20T09:39:00.558Z,4.10
2018-11-20T09:41:48.187Z,4.20
2018-11-20T09:45:12.694Z,4.10
2018-11-20T09:48:03.065Z,4.20
2018-11-20T09:50:50.711Z,4.20
2018-11-20T09:53:51.954Z,4.30
2018-11-20T09:56:38.294Z,4.30
2018-11-20T09:59:39.868Z,4.30
2018-11-20T10:02:36.567Z,4.30
2018-11-20T10:05:39.414Z,4.40
2018-11-20T10:08:35.164Z,4.30
2018-11-20T10:11:22.645Z,4.30
2018-11-20T10:14:13.108Z,4.40
2018-11-20T10:17:03.791Z,4.40
2018-11-20T10:19:52.352Z,4.40
2018-11-20T10:22:40.781Z,4.40
2018-11-20T10:25:29.292Z,4.40
2018-11-20T10:28:27.336Z,4.50
2018-11-20T10:31:17.903Z,4.50
2018-11-20T10:34:03.882Z,4.50
2018-11-20T10:36:56.604Z,4.60
2018-11-20T10:39:56.098Z,4.60
2018-11-20T10:42:36.715Z,4.60
2018-11-20T10:45:27.776Z,4.70
2018-11-20T10:48:17.345Z,4.60
2018-11-20T10:51:03.777Z,4.70
2018-11-20T10:53:52.726Z,4.60
2018-11-20T10:56:43.298Z,4.60
2018-11-20T10:59:29.536Z,4.60
2018-11-20T11:02:15.417Z,4.60
2018-11-20T11:05:11.970Z,4.70
2018-11-20T11:08:30.074Z,4.80
2018-11-20T11:11:26.454Z,4.90
2018-11-20T11:14:19.870Z,4.90
2018-11-20T11:17:17.691Z,4.90
2018-11-20T11:20:03.978Z,4.90
2018-11-20T11:23:00.530Z,4.90
2018-11-20T11:25:46.609Z,4.90
2018-11-20T11:28:47.174Z,5.00
2018-11-20T11:31:50.062Z,5.10
2018-11-20T11:34:45.283Z,5.10
2018-11-20T11:37:32.912Z,5.20
2018-11-20T11:40:25.033Z,5.30
2018-11-20T11:43:12.699Z,5.40
2018-11-20T11:45:59.096Z,5.20
2018-11-20T11:48:45.271Z,5.10
2018-11-20T11:51:32.899Z,5.10
2018-11-20T11:54:12.370Z,4.90
2018-11-20T11:57:06.953Z,4.80
2018-11-20T12:00:02.066Z,4.80
2018-11-20T12:05:47.237Z,4.60
2018-11-20T12:08:39.104Z,4.50
2018-11-20T12:11:25.557Z,4.40
2018-11-20T12:14:23.909Z,4.40
2018-11-20T12:17:10.345Z,4.40
2018-11-20T12:20:03.903Z,4.50
2018-11-20T12:22:49.989Z,4.50
2018-11-20T12:25:36.644Z,4.60
2018-11-20T12:28:22.840Z,4.60
2018-11-20T12:31:09.415Z,4.70
2018-11-20T12:33:59.994Z,4.70
2018-11-20T12:36:45.362Z,4.70
2018-11-20T12:39:40.548Z,4.50
2018-11-20T12:42:30.263Z,4.50
2018-11-20T12:45:16.585Z,4.60
2018-11-20T12:47:57.658Z,4.60
2018-11-20T12:50:48.566Z,4.50
2018-11-20T12:53:42.974Z,4.50
2018-11-20T12:56:36.550Z,4.50
2018-11-20T12:59:34.240Z,4.50
2018-11-20T13:02:20.955Z,4.50
2018-11-20T13:05:15.539Z,4.50
2018-11-20T13:08:07.965Z,4.50
2018-11-20T13:11:10.726Z,4.60
2018-11-20T13:13:59.598Z,4.60
2018-11-20T13:16:43.939Z,4.50
2018-11-20T13:19:38.526Z,4.50
2018-11-20T13:22:31.172Z,4.40
2018-11-20T13:25:17.102Z,4.50
2018-11-20T13:28:13.684Z,4.40
2018-11-20T13:31:00.156Z,4.40
2018-11-20T13:33:45.710Z,4.40
2018-11-20T13:36:31.886Z,4.40
2018-11-20T13:39:11.840Z,4.40
2018-11-20T13:41:49.395Z,4.40
2018-11-20T13:44:35.765Z,4.40
2018-11-20T13:47:21.998Z,4.50
2018-11-20T13:50:20.918Z,4.50
2018-11-20T13:53:13.574Z,4.50
2018-11-20T13:56:01.256Z,4.40
2018-11-20T13:58:47.601Z,4.50
2018-11-20T14:01:33.899Z,4.50
2018-11-20T14:04:19.194Z,4.50
2018-11-20T14:07:21.894Z,4.50
2018-11-20T14:10:10.694Z,4.50
2018-11-20T14:12:57.926Z,4.40
2018-11-20T14:15:51.267Z,4.50
2018-11-20T14:18:37.781Z,4.50
2018-11-20T14:21:21.251Z,4.50
2018-11-20T14:24:08.379Z,4.50
2018-11-20T14:26:54.570Z,4.50
2018-11-20T14:29:38.531Z,4.50
2018-11-20T14:32:28.737Z,4.50
2018-11-20T14:35:16.429Z,4.50
2018-11-20T14:38:02.463Z,4.50
2018-11-20T14:40:53.141Z,4.50
2018-11-20T14:43:50.793Z,4.50
2018-11-20T14:46:45.187Z,4.60
2018-11-20T14:49:43.897Z,4.60
2018-11-20T14:52:30.375Z,4.60
2018-11-20T14:55:23.691Z,4.60
2018-11-20T14:58:30.325Z,4.60
2018-11-20T15:01:36.325Z,4.50
2018-11-20T15:04:26.798Z,4.50
2018-11-20T15:07:14.169Z,4.50
2018-11-20T15:10:15.652Z,4.40
2018-11-20T15:13:07.094Z,4.40
2018-11-20T15:16:09.617Z,4.30
2018-11-20T15:18:56.256Z,4.20
2018-11-20T15:21:47.829Z,4.10
2018-11-20T15:24:42.567Z,4.10
2018-11-20T15:27:43.180Z,4.00
2018-11-20T15:30:39.893Z,3.90
2018-11-20T15:33:36.391Z,3.90
2018-11-20T15:36:22.809Z,3.80
2018-11-20T15:39:22.126Z,3.70
2018-11-20T15:42:12.754Z,3.60
2018-11-20T15:45:02.701Z,3.50
2018-11-20T15:47:50.092Z,3.40
2018-11-20T15:50:29.844Z,3.30
2018-11-20T15:53:09.009Z,3.20
2018-11-20T15:55:59.231Z,3.20
2018-11-20T15:58:49.470Z,3.20
2018-11-20T16:01:43.971Z,3.20
2018-11-20T16:04:34.538Z,3.10
2018-11-20T16:07:26.072Z,3.00
2018-11-20T16:10:16.590Z,3.00
2018-11-20T16:13:06.327Z,2.90
2018-11-20T16:15:59.610Z,3.00
2018-11-20T16:18:38.594Z,2.90
2018-11-20T16:21:32.104Z,2.90
2018-11-20T16:24:12.996Z,2.90
2018-11-20T16:27:05.317Z,2.90
2018-11-20T16:29:53.144Z,2.90
2018-11-20T16:32:39.484Z,2.90
2018-11-20T16:35:40.622Z,2.90
2018-11-20T16:38:37.252Z,2.80
2018-11-20T16:41:32.138Z,2.80
2018-11-20T16:44:18.498Z,2.80
2018-11-20T16:47:06.243Z,2.80
2018-11-20T16:49:56.517Z,2.80
2018-11-20T16:52:55.179Z,2.70
2018-11-20T16:55:54.984Z,2.70
2018-11-20T16:58:43.080Z,2.60
2018-11-20T17:01:32.022Z,2.50
2018-11-20T17:04:43.355Z,2.50
2018-11-20T17:07:35.459Z,2.50
2018-11-20T17:10:29.020Z,2.50
2018-11-20T17:13:19.147Z,2.50
2018-11-20T17:16:00.376Z,2.50
2018-11-20T17:19:06.125Z,2.50
2018-11-20T17:22:11.874Z,2.50
2018-11-20T17:24:58.265Z,2.60
2018-11-20T17:27:44.900Z,2.60
2018-11-20T17:30:31.255Z,2.60
2018-11-20T17:33:23.123Z,2.60
2018-11-20T17:36:29.667Z,2.60
2018-11-20T17:39:29.217Z,2.60
2018-11-20T17:42:34.328Z,2.60
2018-11-20T17:45:45.238Z,2.60
2018-11-20T17:48:51.467Z,2.60
2018-11-20T17:51:40.116Z,2.60
2018-11-20T17:54:41.772Z,2.60
2018-11-20T17:57:31.797Z,2.50
2018-11-20T18:00:24.466Z,2.50
2018-11-20T18:03:10.809Z,2.50
2018-11-20T18:05:57.727Z,2.50
2018-11-20T18:08:54.182Z,2.60
2018-11-20T18:11:44.833Z,2.60
2018-11-20T18:14:41.191Z,2.60
2018-11-20T18:17:29.875Z,2.60
2018-11-20T18:20:13.472Z,2.60
2018-11-20T18:23:03.231Z,2.60
2018-11-20T18:25:49.483Z,2.70
2018-11-20T18:28:36.595Z,2.80
2018-11-20T18:31:13.069Z,2.80
2018-11-20T18:34:15.856Z,2.80
2018-11-20T18:37:12.278Z,2.80
2018-11-20T18:39:58.342Z,2.90
2018-11-20T18:42:46.052Z,2.90
2018-11-20T18:45:33.664Z,2.90
2018-11-20T18:48:15.845Z,2.80
2018-11-20T18:51:02.581Z,2.90
2018-11-20T18:53:49.936Z,2.80
2018-11-20T18:56:49.803Z,2.80
2018-11-20T18:59:36.278Z,2.80
2018-11-20T19:02:33.865Z,2.70
2018-11-20T19:05:50.260Z,2.60
2018-11-20T19:08:37.615Z,2.40
2018-11-20T19:11:40.810Z,2.30
2018-11-20T19:14:27.445Z,2.20
2018-11-20T19:17:09.637Z,2.20
2018-11-20T19:19:57.374Z,2.10
2018-11-20T19:22:44.856Z,2.10
2018-11-20T19:25:38.099Z,2.20
2018-11-20T19:28:34.748Z,2.30
2018-11-20T19:31:41.159Z,2.30
2018-11-20T19:34:21.143Z,2.40
2018-11-20T19:37:07.897Z,2.50
2018-11-20T19:40:00.525Z,2.60
2018-11-20T19:43:14.041Z,2.60
2018-11-20T19:46:01.178Z,2.70
2018-11-20T19:48:49.932Z,2.80
2018-11-20T19:51:35.922Z,2.80
2018-11-20T19:54:29.822Z,2.80
2018-11-20T19:57:16.862Z,2.80
2018-11-20T20:00:04.421Z,2.80
2018-11-20T20:02:52.116Z,2.80
2018-11-20T20:05:54.840Z,2.80
2018-11-20T20:08:56.655Z,2.70
2018-11-20T20:12:04.652Z,2.70
2018-11-20T20:14:51.258Z,2.70
2018-11-20T20:17:50.765Z,2.60
2018-11-20T20:20:37.900Z,2.50
2018-11-20T20:23:19.321Z,2.50
2018-11-20T20:26:25.392Z,2.50
2018-11-20T20:29:32.254Z,2.40
2018-11-20T20:32:26.909Z,2.40
2018-11-20T20:35:23.705Z,2.40
2018-11-20T20:38:10.004Z,2.40
2018-11-20T20:40:59.618Z,2.40
2018-11-20T20:44:02.418Z,2.30
2018-11-20T20:46:55.931Z,2.30
2018-11-20T20:49:42.968Z,2.20
2018-11-20T20:52:24.896Z,2.20
2018-11-20T20:55:14.445Z,2.10
2018-11-20T20:57:50.147Z,2.10
2018-11-20T21:00:36.610Z,2.10
2018-11-20T21:03:35.971Z,2.00
2018-11-20T21:06:16.485Z,2.00
2018-11-20T21:09:04.959Z,2.00
2018-11-20T21:11:52.646Z,1.90
2018-11-20T21:14:40.295Z,1.90
2018-11-20T21:17:43.051Z,1.90
2018-11-20T21:20:34.776Z,1.80
2018-11-20T21:23:31.385Z,1.80
2018-11-20T21:26:27.745Z,1.80
2018-11-20T21:29:19.212Z,1.80
2018-11-20T21:32:05.826Z,1.80
2018-11-20T21:34:55.288Z,1.80
2018-11-20T21:37:39.774Z,1.80
2018-11-20T21:40:28.216Z,1.80
2018-11-20T21:43:30.889Z,1.70
2018-11-20T21:46:18.562Z,1.70
2018-11-20T21:49:04.735Z,1.70
2018-11-20T21:52:03.173Z,1.80
2018-11-20T21:54:49.292Z,1.70
2018-11-20T21:57:45.829Z,1.70
2018-11-20T22:00:37.721Z,1.70
2018-11-20T22:03:29.099Z,1.70
2018-11-20T22:06:15.289Z,1.60
2018-11-20T22:09:03.652Z,1.60
2018-11-20T22:12:03.009Z,1.60
2018-11-20T22:14:59.517Z,1.60
2018-11-20T22:17:45.828Z,1.50
2018-11-20T22:20:32.922Z,1.60
2018-11-20T22:23:20.415Z,1.60
2018-11-20T22:25:56.316Z,1.70
2018-11-20T22:28:56.275Z,1.70
2018-11-20T22:31:56.038Z,1.80
2018-11-20T22:34:43.580Z,1.90
2018-11-20T22:37:29.584Z,1.90
2018-11-20T22:40:15.796Z,1.90
2018-11-20T22:43:13.617Z,1.90
2018-11-20T22:46:21.228Z,1.80
2018-11-20T22:49:11.039Z,1.80
2018-11-20T22:51:50.768Z,1.80
2018-11-20T22:54:38.503Z,1.70
2018-11-20T22:57:22.582Z,1.60
2018-11-20T23:00:08.961Z,1.50
2018-11-20T23:03:09.272Z,1.40
2018-11-20T23:05:59.617Z,1.40
2018-11-20T23:08:28.076Z,1.30
2018-11-20T23:11:05.016Z,1.30
2018-11-20T23:13:41.368Z,1.20
2018-11-20T23:16:09.879Z,1.20
2018-11-20T23:18:39.396Z,1.10
2018-11-20T23:21:07.924Z,1.10
2018-11-20T23:23:36.451Z,1.10
2018-11-20T23:26:05.123Z,1.00
2018-11-20T23:28:35.607Z,1.00
2018-11-20T23:31:06.607Z,1.00
2018-11-20T23:33:36.072Z,0.90
2018-11-20T23:36:06.015Z,0.90
2018-11-20T23:38:34.472Z,0.90
2018-11-20T23:41:03.080Z,0.90
2018-11-20T23:43:33.549Z,0.90
2018-11-20T23:46:02.088Z,0.90
2018-11-20T23:48:30.613Z,0.80
2018-11-20T23:50:59.112Z,0.80
2018-11-20T23:53:29.627Z,0.80
2018-11-20T23:55:58.157Z,0.80
2018-11-20T23:58:26.683Z,0.80
